Terminal Aerodrome Forecast
Issued by NWS

Home | Current Version | Previous Version | Text Only | Print | Product List | Glossary On
Versions: 1 2 3 4 5 6 7 8 9 10 11 12 13 14 15
000
FTUS46 KHNX 291122
TAFBFL
TAF
KBFL 291122Z 2912/3012 10005KT 2SM BR BKN010
     FM291800 29005KT 4SM HZ SCT015 BKN120
      TEMPO 3010/3012 2SM BR=

USA.gov is the U.S. government's official web portal to all federal, state and local government web resources and services.